Overview Statistics Trail Chart Weather Telemetry Raw packets
 

This is the latest recevied weather packets stored in our database for station/object IR3AS. If no packets are shown the sender has not sent any weather packets the latest 10 day(s).

<< 120 121 122 123 124 125 126 >>
Time Temp. Humidity Pressure Rain* Wind** Luminosity Snow
1787749203 22.22° C 58% 867.9 hPa 0 mm - - -
1787748903 22.78° C 61% 868.4 hPa 0 mm - - -
1787748603 21.67° C 62% 868.4 hPa 0 mm - - -
1787748303 21.67° C 60% 868.2 hPa 0 mm - - -
1787748003 22.22° C 61% 868 hPa 0 mm - - -
1787747703 22.22° C 61% 867.9 hPa 0 mm - - -
1787747403 22.22° C 62% 867.8 hPa 0 mm - - -
1787747105 21.11° C 64% 868.1 hPa 0 mm - - -
1787746803 21.11° C 63% 868.1 hPa 0 mm - - -
1787746504 21.11° C 63% 867.9 hPa 0 mm - - -
1787746203 20.56° C 66% 867.9 hPa 0 mm - - -
1787745904 20° C 67% 867.9 hPa 0 mm - - -
1787745607 18.89° C 69% 868 hPa 0 mm - - -
1787745303 18.33° C 69% 868 hPa 0 mm - - -
1787745004 17.78° C 69% 867.7 hPa 0 mm - - -
1787744703 17.78° C 69% 867.7 hPa 0 mm - - -
1787744403 18.33° C 69% 867.7 hPa 0 mm - - -
1787744103 18.33° C 69% 867.6 hPa 0 mm - - -
1787743840 18.33° C 68% 867.6 hPa 0 mm - - -
1787743804 18.33° C 68% 867.6 hPa 0 mm - - -
1787743503 18.33° C 69% 867.7 hPa 0 mm - - -
1787743207 17.78° C 69% 867.6 hPa 0 mm - - -
1787742903 17.78° C 68% 867.8 hPa 0 mm - - -
1787742641 17.78° C 68% 867.8 hPa 0 mm - - -
1787742604 17.78° C 68% 867.8 hPa 0 mm - - -

* Rain latest hour (hover to see other rain measurements)
** Current wind speed in m/s (hover to see current wind gust speed)